sensor_id;sensor_type;location;lat;lon;timestamp;pressure;altitude;pressure_sealevel;temperature;humidity
51287;BME280;37364;46.974;18.916;2023-04-02T00:00:17;152316.50;;;7.81;100.00
51287;BME280;37364;46.974;18.916;2023-04-02T00:02:57;152334.59;;;7.88;100.00
51287;BME280;37364;46.974;18.916;2023-04-02T00:05:40;152303.56;;;7.76;100.00
51287;BME280;37364;46.974;18.916;2023-04-02T00:08:25;152313.94;;;7.80;100.00
51287;BME280;37364;46.974;18.916;2023-04-02T00:11:00;152316.50;;;7.81;100.00
51287;BME280;37364;46.974;18.916;2023-04-02T00:13:35;152357.81;;;7.98;100.00
51287;BME280;37364;46.974;18.916;2023-04-02T00:16:12;152352.66;;;7.96;100.00
51287;BME280;37364;46.974;18.916;2023-04-02T00:18:45;152364.31;;;8.00;100.00
51287;BME280;37364;46.974;18.916;2023-04-02T00:21:21;152366.88;;;8.01;100.00
51287;BME280;37364;46.974;18.916;2023-04-02T00:23:53;152351.38;;;7.95;100.00
51287;BME280;37364;46.974;18.916;2023-04-02T00:26:30;152346.22;;;7.93;100.00
51287;BME280;37364;46.974;18.916;2023-04-02T00:29:02;152344.94;;;7.92;100.00
51287;BME280;37364;46.974;18.916;2023-04-02T00:31:35;152359.16;;;7.98;100.00
51287;BME280;37364;46.974;18.916;2023-04-02T00:34:13;152381.09;;;8.07;100.00
51287;BME280;37364;46.974;18.916;2023-04-02T00:36:47;152408.25;;;8.18;100.00
51287;BME280;37364;46.974;18.916;2023-04-02T00:39:22;152434.09;;;8.28;100.00
51287;BME280;37364;46.974;18.916;2023-04-02T00:42:00;152434.09;;;8.28;100.00
51287;BME280;37364;46.974;18.916;2023-04-02T00:44:37;152421.16;;;8.23;100.00
51287;BME280;37364;46.974;18.916;2023-04-02T00:47:13;152400.47;;;8.15;100.00
51287;BME280;37364;46.974;18.916;2023-04-02T00:49:52;152414.72;;;8.20;100.00
51287;BME280;37364;46.974;18.916;2023-04-02T00:52:32;152435.38;;;8.28;100.00
51287;BME280;37364;46.974;18.916;2023-04-02T00:55:07;152472.94;;;8.43;100.00
51287;BME280;37364;46.974;18.916;2023-04-02T00:57:47;152487.16;;;8.49;100.00
51287;BME280;37364;46.974;18.916;2023-04-02T01:00:23;152510.41;;;8.58;100.00
51287;BME280;37364;46.974;18.916;2023-04-02T01:03:26;152531.13;;;8.66;100.00
51287;BME280;37364;46.974;18.916;2023-04-02T01:06:05;152542.75;;;8.71;100.00
51287;BME280;37364;46.974;18.916;2023-04-02T01:14:44;152531.13;;;8.66;100.00
51287;BME280;37364;46.974;18.916;2023-04-02T01:17:26;152540.13;;;8.70;100.00
51287;BME280;37364;46.974;18.916;2023-04-02T01:20:27;152524.63;;;8.64;100.00
51287;BME280;37364;46.974;18.916;2023-04-02T01:23:07;152524.63;;;8.64;100.00
51287;BME280;37364;46.974;18.916;2023-04-02T01:25:44;152547.91;;;8.73;100.00
51287;BME280;37364;46.974;18.916;2023-04-02T01:28:18;152549.19;;;8.74;100.00
51287;BME280;37364;46.974;18.916;2023-04-02T01:30:55;152531.13;;;8.66;100.00
51287;BME280;37364;46.974;18.916;2023-04-02T01:33:32;152534.97;;;8.68;100.00
51287;BME280;37364;46.974;18.916;2023-04-02T01:36:09;152550.47;;;8.74;100.00
51287;BME280;37364;46.974;18.916;2023-04-02T01:38:47;152545.31;;;8.72;100.00
51287;BME280;37364;46.974;18.916;2023-04-02T01:41:25;152525.91;;;8.64;100.00
51287;BME280;37364;46.974;18.916;2023-04-02T01:44:06;152529.78;;;8.66;100.00
51287;BME280;37364;46.974;18.916;2023-04-02T01:46:42;152525.91;;;8.64;100.00
51287;BME280;37364;46.974;18.916;2023-04-02T01:49:16;152563.41;;;8.79;100.00
51287;BME280;37364;46.974;18.916;2023-04-02T01:51:51;152546.63;;;8.73;100.00
51287;BME280;37364;46.974;18.916;2023-04-02T01:54:31;152531.13;;;8.66;100.00
51287;BME280;37364;46.974;18.916;2023-04-02T01:57:04;152525.91;;;8.64;100.00
51287;BME280;37364;46.974;18.916;2023-04-02T01:59:38;152513.00;;;8.59;100.00
51287;BME280;37364;46.974;18.916;2023-04-02T02:02:14;152515.56;;;8.60;100.00
51287;BME280;37364;46.974;18.916;2023-04-02T02:04:47;152523.34;;;8.63;100.00
51287;BME280;37364;46.974;18.916;2023-04-02T02:07:20;152524.63;;;8.64;100.00
51287;BME280;37364;46.974;18.916;2023-04-02T02:09:55;152522.06;;;8.63;100.00
51287;BME280;37364;46.974;18.916;2023-04-02T02:12:28;152505.22;;;8.56;100.00
51287;BME280;37364;46.974;18.916;2023-04-02T02:14:58;152492.34;;;8.51;100.00
51287;BME280;37364;46.974;18.916;2023-04-02T02:17:31;152522.06;;;8.63;100.00
51287;BME280;37364;46.974;18.916;2023-04-02T02:20:02;152497.50;;;8.53;100.00
51287;BME280;37364;46.974;18.916;2023-04-02T02:22:42;152501.38;;;8.55;100.00
51287;BME280;37364;46.974;18.916;2023-04-02T02:25:16;152497.50;;;8.53;100.00
51287;BME280;37364;46.974;18.916;2023-04-02T02:27:54;152514.28;;;8.60;100.00
51287;BME280;37364;46.974;18.916;2023-04-02T02:30:30;152511.72;;;8.59;100.00
51287;BME280;37364;46.974;18.916;2023-04-02T02:33:08;152516.91;;;8.61;100.00
51287;BME280;37364;46.974;18.916;2023-04-02T02:35:47;152502.66;;;8.55;100.00
51287;BME280;37364;46.974;18.916;2023-04-02T02:38:38;152501.38;;;8.55;100.00
51287;BME280;37364;46.974;18.916;2023-04-02T02:41:19;152461.22;;;8.39;100.00
51287;BME280;37364;46.974;18.916;2023-04-02T02:43:59;152483.28;;;8.47;100.00
51287;BME280;37364;46.974;18.916;2023-04-02T02:46:33;152461.22;;;8.39;100.00
51287;BME280;37364;46.974;18.916;2023-04-02T02:49:13;152436.66;;;8.29;100.00
51287;BME280;37364;46.974;18.916;2023-04-02T02:51:47;152432.81;;;8.27;100.00
51287;BME280;37364;46.974;18.916;2023-04-02T02:54:26;152419.88;;;8.22;100.00
51287;BME280;37364;46.974;18.916;2023-04-02T02:57:00;152399.22;;;8.14;100.00
51287;BME280;37364;46.974;18.916;2023-04-02T02:59:33;152390.16;;;8.10;100.00
51287;BME280;37364;46.974;18.916;2023-04-02T03:02:05;152391.44;;;8.11;100.00
51287;BME280;37364;46.974;18.916;2023-04-02T03:04:39;152395.31;;;8.12;100.00
51287;BME280;37364;46.974;18.916;2023-04-02T03:07:13;152403.09;;;8.16;100.00
51287;BME280;37364;46.974;18.916;2023-04-02T03:09:51;152357.81;;;7.98;100.00
51287;BME280;37364;46.974;18.916;2023-04-02T03:12:31;152357.81;;;7.98;100.00
51287;BME280;37364;46.974;18.916;2023-04-02T03:15:14;152311.31;;;7.79;100.00
51287;BME280;37364;46.974;18.916;2023-04-02T03:17:51;152307.44;;;7.78;100.00
51287;BME280;37364;46.974;18.916;2023-04-02T03:20:33;152291.94;;;7.71;100.00
51287;BME280;37364;46.974;18.916;2023-04-02T03:23:11;152275.16;;;7.65;100.00
51287;BME280;37364;46.974;18.916;2023-04-02T03:25:50;152254.50;;;7.57;100.00
51287;BME280;37364;46.974;18.916;2023-04-02T03:28:26;152244.13;;;7.52;100.00
51287;BME280;37364;46.974;18.916;2023-04-02T03:30:58;152229.94;;;7.47;100.00
51287;BME280;37364;46.974;18.916;2023-04-02T03:33:34;152223.47;;;7.44;100.00
51287;BME280;37364;46.974;18.916;2023-04-02T03:36:18;152215.75;;;7.41;100.00
51287;BME280;37364;46.974;18.916;2023-04-02T03:38:53;152195.03;;;7.33;100.00
51287;BME280;37364;46.974;18.916;2023-04-02T03:41:30;152213.13;;;7.40;100.00
51287;BME280;37364;46.974;18.916;2023-04-02T03:44:05;152200.25;;;7.35;100.00
51287;BME280;37364;46.974;18.916;2023-04-02T03:46:44;152206.69;;;7.38;100.00
51287;BME280;37364;46.974;18.916;2023-04-02T03:49:19;152193.75;;;7.32;100.00
51287;BME280;37364;46.974;18.916;2023-04-02T03:52:00;152178.25;;;7.26;100.00
51287;BME280;37364;46.974;18.916;2023-04-02T03:54:35;152173.09;;;7.24;100.00
51287;BME280;37364;46.974;18.916;2023-04-02T03:57:09;152176.97;;;7.26;100.00
51287;BME280;37364;46.974;18.916;2023-04-02T03:59:53;152160.16;;;7.19;100.00
51287;BME280;37364;46.974;18.916;2023-04-02T04:02:37;152167.94;;;7.22;100.00
51287;BME280;37364;46.974;18.916;2023-04-02T04:05:20;152138.22;;;7.10;100.00
51287;BME280;37364;46.974;18.916;2023-04-02T04:07:59;152149.84;;;7.15;100.00
51287;BME280;37364;46.974;18.916;2023-04-02T04:10:30;152178.25;;;7.26;100.00
51287;BME280;37364;46.974;18.916;2023-04-02T04:13:04;152186.03;;;7.29;100.00
51287;BME280;37364;46.974;18.916;2023-04-02T04:15:38;152173.09;;;7.24;100.00
51287;BME280;37364;46.974;18.916;2023-04-02T04:18:18;152192.47;;;7.32;100.00
51287;BME280;37364;46.974;18.916;2023-04-02T04:20:52;152192.47;;;7.32;100.00
51287;BME280;37364;46.974;18.916;2023-04-02T04:23:36;152219.56;;;7.43;100.00
51287;BME280;37364;46.974;18.916;2023-04-02T04:26:18;152222.19;;;7.44;100.00
51287;BME280;37364;46.974;18.916;2023-04-02T04:29:03;152219.56;;;7.43;100.00
51287;BME280;37364;46.974;18.916;2023-04-02T04:31:40;152224.78;;;7.45;100.00
51287;BME280;37364;46.974;18.916;2023-04-02T04:34:17;152213.13;;;7.40;100.00
51287;BME280;37364;46.974;18.916;2023-04-02T04:36:53;152210.56;;;7.39;100.00
51287;BME280;37364;46.974;18.916;2023-04-02T04:39:39;152226.06;;;7.45;100.00
51287;BME280;37364;46.974;18.916;2023-04-02T04:42:17;152229.94;;;7.47;100.00
51287;BME280;37364;46.974;18.916;2023-04-02T04:44:56;152236.41;;;7.49;100.00
51287;BME280;37364;46.974;18.916;2023-04-02T04:47:29;152205.41;;;7.37;100.00
51287;BME280;37364;46.974;18.916;2023-04-02T04:50:06;152229.94;;;7.47;100.00
51287;BME280;37364;46.974;18.916;2023-04-02T04:52:41;152262.22;;;7.60;100.00
51287;BME280;37364;46.974;18.916;2023-04-02T04:55:27;152262.22;;;7.60;100.00
51287;BME280;37364;46.974;18.916;2023-04-02T04:58:02;152301.00;;;7.75;100.00
51287;BME280;37364;46.974;18.916;2023-04-02T05:00:43;152303.56;;;7.76;100.00
51287;BME280;37364;46.974;18.916;2023-04-02T05:03:25;152301.00;;;7.75;100.00
51287;BME280;37364;46.974;18.916;2023-04-02T05:06:07;152324.25;;;7.84;100.00
51287;BME280;37364;46.974;18.916;2023-04-02T05:08:43;152344.94;;;7.92;100.00
51287;BME280;37364;46.974;18.916;2023-04-02T05:11:25;152386.25;;;8.09;100.00
51287;BME280;37364;46.974;18.916;2023-04-02T05:14:00;152417.31;;;8.21;100.00
51287;BME280;37364;46.974;18.916;2023-04-02T05:16:36;152410.81;;;8.19;100.00
51287;BME280;37364;46.974;18.916;2023-04-02T05:19:11;152421.16;;;8.23;100.00
51287;BME280;37364;46.974;18.916;2023-04-02T05:21:47;152435.38;;;8.28;100.00
51287;BME280;37364;46.974;18.916;2023-04-02T05:24:42;152445.72;;;8.32;100.00
51287;BME280;37364;46.974;18.916;2023-04-02T05:27:25;152449.59;;;8.34;100.00
51287;BME280;37364;46.974;18.916;2023-04-02T05:30:02;152441.81;;;8.31;100.00
51287;BME280;37364;46.974;18.916;2023-04-02T05:32:36;152461.22;;;8.39;100.00
51287;BME280;37364;46.974;18.916;2023-04-02T05:35:18;152445.72;;;8.32;100.00
51287;BME280;37364;46.974;18.916;2023-04-02T05:37:51;152459.94;;;8.38;100.00
51287;BME280;37364;46.974;18.916;2023-04-02T05:40:26;152474.22;;;8.44;100.00
51287;BME280;37364;46.974;18.916;2023-04-02T05:43:03;152483.28;;;8.47;100.00
51287;BME280;37364;46.974;18.916;2023-04-02T05:45:43;152515.56;;;8.60;100.00
51287;BME280;37364;46.974;18.916;2023-04-02T05:48:18;152532.41;;;8.67;100.00
51287;BME280;37364;46.974;18.916;2023-04-02T05:50:51;152567.31;;;8.81;100.00
51287;BME280;37364;46.974;18.916;2023-04-02T05:53:30;152597.06;;;8.93;100.00
51287;BME280;37364;46.974;18.916;2023-04-02T05:56:06;152657.81;;;9.17;100.00
51287;BME280;37364;46.974;18.916;2023-04-02T05:58:46;152722.50;;;9.42;100.00
51287;BME280;37364;46.974;18.916;2023-04-02T06:01:31;152767.78;;;9.60;100.00
51287;BME280;37364;46.974;18.916;2023-04-02T06:04:16;152757.44;;;9.56;100.00
51287;BME280;37364;46.974;18.916;2023-04-02T06:06:54;152765.22;;;9.59;100.00
51287;BME280;37364;46.974;18.916;2023-04-02T06:09:32;152769.09;;;9.61;100.00
51287;BME280;37364;46.974;18.916;2023-04-02T06:12:29;152785.91;;;9.67;100.00
51287;BME280;37364;46.974;18.916;2023-04-02T06:15:11;152858.38;;;9.96;100.00
51287;BME280;37364;46.974;18.916;2023-04-02T06:17:46;152924.38;;;10.22;100.00
51287;BME280;37364;46.974;18.916;2023-04-02T06:20:19;152928.28;;;10.24;100.00
51287;BME280;37364;46.974;18.916;2023-04-02T06:22:52;152986.59;;;10.47;100.00
51287;BME280;37364;46.974;18.916;2023-04-02T06:25:28;152963.25;;;10.38;100.00
51287;BME280;37364;46.974;18.916;2023-04-02T06:28:03;152925.66;;;10.23;100.00
51287;BME280;37364;46.974;18.916;2023-04-02T06:30:40;152921.81;;;10.21;100.00
51287;BME280;37364;46.974;18.916;2023-04-02T06:33:12;152956.81;;;10.35;100.00
51287;BME280;37364;46.974;18.916;2023-04-02T06:35:45;152914.03;;;10.18;100.00
51287;BME280;37364;46.974;18.916;2023-04-02T06:38:27;152969.72;;;10.40;100.00
51287;BME280;37364;46.974;18.916;2023-04-02T06:41:02;152969.72;;;10.40;100.00
51287;BME280;37364;46.974;18.916;2023-04-02T06:43:45;152939.91;;;10.28;100.00
51287;BME280;37364;46.974;18.916;2023-04-02T06:46:27;152998.22;;;10.52;100.00
51287;BME280;37364;46.974;18.916;2023-04-02T06:49:12;153064.22;;;10.78;100.00
51287;BME280;37364;46.974;18.916;2023-04-02T06:51:44;153069.41;;;10.80;100.00
51287;BME280;37364;46.974;18.916;2023-04-02T06:54:17;153046.13;;;10.71;100.00
51287;BME280;37364;46.974;18.916;2023-04-02T06:56:54;153147.13;;;11.11;100.00
51287;BME280;37364;46.974;18.916;2023-04-02T06:59:45;153157.47;;;11.15;100.00
51287;BME280;37364;46.974;18.916;2023-04-02T07:02:27;153069.41;;;10.80;100.00
51287;BME280;37364;46.974;18.916;2023-04-02T07:05:02;153109.59;;;10.96;100.00
51287;BME280;37364;46.974;18.916;2023-04-02T07:07:38;153188.56;;;11.27;100.00
51287;BME280;37364;46.974;18.916;2023-04-02T07:10:11;153222.25;;;11.40;100.00
51287;BME280;37364;46.974;18.916;2023-04-02T07:12:41;153187.28;;;11.26;100.00
51287;BME280;37364;46.974;18.916;2023-04-02T07:15:14;153173.03;;;11.21;100.00
51287;BME280;37364;46.974;18.916;2023-04-02T07:17:49;153173.03;;;11.21;100.00
51287;BME280;37364;46.974;18.916;2023-04-02T07:20:27;153180.81;;;11.24;100.00
51287;BME280;37364;46.974;18.916;2023-04-02T07:23:01;153152.31;;;11.13;100.00
51287;BME280;37364;46.974;18.916;2023-04-02T07:25:31;153169.16;;;11.19;100.00
51287;BME280;37364;46.974;18.916;2023-04-02T07:28:04;153175.63;;;11.22;100.00
51287;BME280;37364;46.974;18.916;2023-04-02T07:30:34;153147.13;;;11.11;100.00
51287;BME280;37364;46.974;18.916;2023-04-02T07:33:11;153209.31;;;11.35;100.00
51287;BME280;37364;46.974;18.916;2023-04-02T07:35:42;153232.63;;;11.44;100.00
51287;BME280;37364;46.974;18.916;2023-04-02T07:38:13;153214.50;;;11.37;100.00
51287;BME280;37364;46.974;18.916;2023-04-02T07:40:43;153236.50;;;11.46;100.00
51287;BME280;37364;46.974;18.916;2023-04-02T07:43:14;153284.47;;;11.65;100.00
51287;BME280;37364;46.974;18.916;2023-04-02T07:45:46;153351.84;;;11.92;100.00
51287;BME280;37364;46.974;18.916;2023-04-02T07:48:21;153287.03;;;11.66;100.00
51287;BME280;37364;46.974;18.916;2023-04-02T07:50:54;153359.66;;;11.95;100.00
51287;BME280;37364;46.974;18.916;2023-04-02T07:53:29;153272.81;;;11.60;100.00
51287;BME280;37364;46.974;18.916;2023-04-02T07:56:19;153310.38;;;11.75;100.00
51287;BME280;37364;46.974;18.916;2023-04-02T07:58:49;153375.19;;;12.01;100.00
51287;BME280;37364;46.974;18.916;2023-04-02T08:01:21;153392.09;;;12.07;100.00
51287;BME280;37364;46.974;18.916;2023-04-02T08:03:56;153430.91;;;12.23;100.00
51287;BME280;37364;46.974;18.916;2023-04-02T08:06:26;153460.72;;;12.35;100.00
51287;BME280;37364;46.974;18.916;2023-04-02T08:08:57;153401.13;;;12.11;100.00
51287;BME280;37364;46.974;18.916;2023-04-02T08:11:27;153427.06;;;12.21;100.00
51287;BME280;37364;46.974;18.916;2023-04-02T08:13:57;153508.72;;;12.54;100.00
51287;BME280;37364;46.974;18.916;2023-04-02T08:16:42;153564.47;;;12.76;100.00
51287;BME280;37364;46.974;18.916;2023-04-02T08:19:20;153547.63;;;12.69;100.00
51287;BME280;37364;46.974;18.916;2023-04-02T08:21:51;153485.38;;;12.44;100.00
51287;BME280;37364;46.974;18.916;2023-04-02T08:24:22;153504.81;;;12.52;100.00
51287;BME280;37364;46.974;18.916;2023-04-02T08:26:52;153660.47;;;13.14;100.00
51287;BME280;37364;46.974;18.916;2023-04-02T08:29:22;153664.34;;;13.15;100.00
51287;BME280;37364;46.974;18.916;2023-04-02T08:31:55;153666.94;;;13.16;100.00
51287;BME280;37364;46.974;18.916;2023-04-02T08:34:28;153751.28;;;13.50;100.00
51287;BME280;37364;46.974;18.916;2023-04-02T08:36:58;153686.38;;;13.24;100.00
51287;BME280;37364;46.974;18.916;2023-04-02T08:39:29;153721.47;;;13.38;100.00
51287;BME280;37364;46.974;18.916;2023-04-02T08:42:03;153739.63;;;13.45;100.00
51287;BME280;37364;46.974;18.916;2023-04-02T08:44:42;153830.44;;;13.81;100.00
51287;BME280;37364;46.974;18.916;2023-04-02T08:47:17;153734.44;;;13.43;100.00
51287;BME280;37364;46.974;18.916;2023-04-02T08:49:58;153982.31;;;14.41;100.00
51287;BME280;37364;46.974;18.916;2023-04-02T08:52:32;153822.63;;;13.78;100.00
51287;BME280;37364;46.974;18.916;2023-04-02T08:55:16;153836.91;;;13.83;100.00
51287;BME280;37364;46.974;18.916;2023-04-02T08:57:58;153930.38;;;14.20;100.00
51287;BME280;37364;46.974;18.916;2023-04-02T09:00:34;154017.38;;;14.55;100.00
51287;BME280;37364;46.974;18.916;2023-04-02T09:03:08;153756.47;;;13.52;100.00
51287;BME280;37364;46.974;18.916;2023-04-02T09:05:44;153838.25;;;13.84;100.00
51287;BME280;37364;46.974;18.916;2023-04-02T09:08:17;153884.94;;;14.02;100.00
51287;BME280;37364;46.974;18.916;2023-04-02T09:10:52;153735.75;;;13.43;100.00
51287;BME280;37364;46.974;18.916;2023-04-02T09:13:25;153759.09;;;13.53;100.00
51287;BME280;37364;46.974;18.916;2023-04-02T09:16:01;153881.03;;;14.01;100.00
51287;BME280;37364;46.974;18.916;2023-04-02T09:18:33;153917.41;;;14.15;100.00
51287;BME280;37364;46.974;18.916;2023-04-02T09:21:26;153720.19;;;13.37;100.00
51287;BME280;37364;46.974;18.916;2023-04-02T09:24:01;153703.28;;;13.31;100.00
51287;BME280;37364;46.974;18.916;2023-04-02T09:26:32;153747.38;;;13.48;100.00
51287;BME280;37364;46.974;18.916;2023-04-02T09:29:29;153641.00;;;13.06;100.00
51287;BME280;37364;46.974;18.916;2023-04-02T09:32:09;153766.84;;;13.56;100.00
51287;BME280;37364;46.974;18.916;2023-04-02T09:34:46;153759.09;;;13.53;100.00
51287;BME280;37364;46.974;18.916;2023-04-02T09:37:20;153816.16;;;13.75;100.00
51287;BME280;37364;46.974;18.916;2023-04-02T09:39:52;153964.13;;;14.34;100.00
51287;BME280;37364;46.974;18.916;2023-04-02T09:42:38;153930.38;;;14.20;100.00
51287;BME280;37364;46.974;18.916;2023-04-02T09:45:13;153823.97;;;13.78;100.00
51287;BME280;37364;46.974;18.916;2023-04-02T09:47:44;153958.94;;;14.32;100.00
51287;BME280;37364;46.974;18.916;2023-04-02T09:50:30;154019.94;;;14.56;100.00
51287;BME280;37364;46.974;18.916;2023-04-02T09:53:23;154164.13;;;15.13;100.00
51287;BME280;37364;46.974;18.916;2023-04-02T09:56:07;154201.81;;;15.28;100.00
51287;BME280;37364;46.974;18.916;2023-04-02T09:58:39;154164.13;;;15.13;100.00
51287;BME280;37364;46.974;18.916;2023-04-02T10:01:31;154178.41;;;15.18;100.00
51287;BME280;37364;46.974;18.916;2023-04-02T10:04:04;154187.50;;;15.22;100.00
51287;BME280;37364;46.974;18.916;2023-04-02T10:06:34;154103.09;;;14.89;100.00
51287;BME280;37364;46.974;18.916;2023-04-02T10:09:26;154170.66;;;15.15;100.00
51287;BME280;37364;46.974;18.916;2023-04-02T10:12:00;154060.22;;;14.72;100.00
51287;BME280;37364;46.974;18.916;2023-04-02T10:14:35;154169.31;;;15.15;100.00
51287;BME280;37364;46.974;18.916;2023-04-02T10:17:11;154190.13;;;15.23;100.00
51287;BME280;37364;46.974;18.916;2023-04-02T10:19:47;154096.63;;;14.86;100.00
51287;BME280;37364;46.974;18.916;2023-04-02T10:22:21;154108.28;;;14.91;100.00
51287;BME280;37364;46.974;18.916;2023-04-02T10:24:57;154092.72;;;14.85;100.00
51287;BME280;37364;46.974;18.916;2023-04-02T10:27:35;154083.63;;;14.81;100.00
51287;BME280;37364;46.974;18.916;2023-04-02T10:30:15;154081.03;;;14.80;100.00
51287;BME280;37364;46.974;18.916;2023-04-02T10:32:50;154184.88;;;15.21;100.00
51287;BME280;37364;46.974;18.916;2023-04-02T10:35:35;154214.81;;;15.33;100.00
51287;BME280;37364;46.974;18.916;2023-04-02T10:38:25;154057.66;;;14.71;100.00
51287;BME280;37364;46.974;18.916;2023-04-02T10:41:06;154164.13;;;15.13;100.00
51287;BME280;37364;46.974;18.916;2023-04-02T10:44:05;154299.25;;;15.66;100.00
51287;BME280;37364;46.974;18.916;2023-04-02T10:46:52;154236.88;;;15.41;100.00
51287;BME280;37364;46.974;18.916;2023-04-02T10:49:31;154084.91;;;14.81;100.00
51287;BME280;37364;46.974;18.916;2023-04-02T10:52:08;153921.28;;;14.17;100.00
51287;BME280;37364;46.974;18.916;2023-04-02T10:54:44;153970.59;;;14.36;100.00
51287;BME280;37364;46.974;18.916;2023-04-02T10:57:33;153879.75;;;14.00;100.00
51287;BME280;37364;46.974;18.916;2023-04-02T11:00:15;153926.47;;;14.19;100.00
51287;BME280;37364;46.974;18.916;2023-04-02T11:02:51;154021.31;;;14.56;100.00
51287;BME280;37364;46.974;18.916;2023-04-02T11:05:28;153908.31;;;14.12;100.00
51287;BME280;37364;46.974;18.916;2023-04-02T11:08:08;153899.22;;;14.08;100.00
51287;BME280;37364;46.974;18.916;2023-04-02T11:10:44;153925.19;;;14.18;100.00
51287;BME280;37364;46.974;18.916;2023-04-02T11:13:22;153978.41;;;14.39;100.00
51287;BME280;37364;46.974;18.916;2023-04-02T11:15:54;153945.94;;;14.27;100.00
51287;BME280;37364;46.974;18.916;2023-04-02T11:18:27;154107.00;;;14.90;100.00
51287;BME280;37364;46.974;18.916;2023-04-02T11:21:02;154156.34;;;15.10;100.00
51287;BME280;37364;46.974;18.916;2023-04-02T11:23:52;154152.44;;;15.08;100.00
51287;BME280;37364;46.974;18.916;2023-04-02T11:26:47;154255.06;;;15.49;100.00
51287;BME280;37364;46.974;18.916;2023-04-02T11:29:24;154281.03;;;15.59;100.00
51287;BME280;37364;46.974;18.916;2023-04-02T11:32:12;154123.88;;;14.97;100.00
51287;BME280;37364;46.974;18.916;2023-04-02T11:37:56;154204.38;;;15.29;100.00
51287;BME280;37364;46.974;18.916;2023-04-02T11:40:51;154245.97;;;15.45;100.00
51287;BME280;37364;46.974;18.916;2023-04-02T11:43:47;154035.56;;;14.62;100.00
51287;BME280;37364;46.974;18.916;2023-04-02T11:46:37;153940.75;;;14.24;100.00
51287;BME280;37364;46.974;18.916;2023-04-02T11:49:36;154001.78;;;14.49;100.00
51287;BME280;37364;46.974;18.916;2023-04-02T11:52:25;154010.84;;;14.52;100.00
51287;BME280;37364;46.974;18.916;2023-04-02T11:57:50;154043.38;;;14.65;100.00
51287;BME280;37364;46.974;18.916;2023-04-02T12:04:06;154284.97;;;15.60;100.00
51287;BME280;37364;46.974;18.916;2023-04-02T12:06:52;154404.53;;;16.08;100.00
51287;BME280;37364;46.974;18.916;2023-04-02T12:09:27;154477.28;;;16.36;100.00
51287;BME280;37364;46.974;18.916;2023-04-02T12:12:00;154234.25;;;15.40;100.00
51287;BME280;37364;46.974;18.916;2023-04-02T12:14:46;154234.25;;;15.40;100.00
51287;BME280;37364;46.974;18.916;2023-04-02T12:17:23;154143.34;;;15.05;100.00
51287;BME280;37364;46.974;18.916;2023-04-02T12:20:02;154042.09;;;14.65;100.00
51287;BME280;37364;46.974;18.916;2023-04-02T12:22:38;154164.13;;;15.13;100.00
51287;BME280;37364;46.974;18.916;2023-04-02T12:25:22;154236.88;;;15.41;100.00
51287;BME280;37364;46.974;18.916;2023-04-02T12:28:03;154286.25;;;15.61;100.00
51287;BME280;37364;46.974;18.916;2023-04-02T12:30:34;154296.63;;;15.65;100.00
51287;BME280;37364;46.974;18.916;2023-04-02T12:33:15;154309.66;;;15.70;100.00
51287;BME280;37364;46.974;18.916;2023-04-02T12:35:49;154374.66;;;15.96;100.00
51287;BME280;37364;46.974;18.916;2023-04-02T12:38:25;154307.03;;;15.69;100.00
51287;BME280;37364;46.974;18.916;2023-04-02T12:40:57;154356.44;;;15.89;100.00
51287;BME280;37364;46.974;18.916;2023-04-02T12:43:30;154440.91;;;16.22;100.00
51287;BME280;37364;46.974;18.916;2023-04-02T12:46:03;154242.06;;;15.43;100.00
51287;BME280;37364;46.974;18.916;2023-04-02T12:48:35;154301.81;;;15.67;100.00
51287;BME280;37364;46.974;18.916;2023-04-02T12:51:09;154257.66;;;15.50;100.00
51287;BME280;37364;46.974;18.916;2023-04-02T12:53:40;154201.81;;;15.28;100.00
51287;BME280;37364;46.974;18.916;2023-04-02T12:56:18;154182.31;;;15.20;100.00
51287;BME280;37364;46.974;18.916;2023-04-02T12:58:52;154196.63;;;15.26;100.00
51287;BME280;37364;46.974;18.916;2023-04-02T13:01:25;154268.03;;;15.54;100.00
51287;BME280;37364;46.974;18.916;2023-04-02T13:04:02;154255.06;;;15.49;100.00
51287;BME280;37364;46.974;18.916;2023-04-02T13:06:39;154360.34;;;15.90;100.00
51287;BME280;37364;46.974;18.916;2023-04-02T13:09:27;154177.13;;;15.18;100.00
51287;BME280;37364;46.974;18.916;2023-04-02T13:11:58;154190.13;;;15.23;100.00
51287;BME280;37364;46.974;18.916;2023-04-02T13:14:30;154374.66;;;15.96;100.00
51287;BME280;37364;46.974;18.916;2023-04-02T13:17:00;154223.88;;;15.36;100.00
51287;BME280;37364;46.974;18.916;2023-04-02T13:19:31;154265.47;;;15.53;100.00
51287;BME280;37364;46.974;18.916;2023-04-02T13:22:28;154203.09;;;15.28;100.00
51287;BME280;37364;46.974;18.916;2023-04-02T13:24:59;154288.81;;;15.62;100.00
51287;BME280;37364;46.974;18.916;2023-04-02T13:27:31;154262.84;;;15.52;100.00
51287;BME280;37364;46.974;18.916;2023-04-02T13:30:07;154222.56;;;15.36;100.00
51287;BME280;37364;46.974;18.916;2023-04-02T13:32:37;154309.66;;;15.70;100.00
51287;BME280;37364;46.974;18.916;2023-04-02T13:35:08;154338.25;;;15.81;99.48
51287;BME280;37364;46.974;18.916;2023-04-02T13:37:41;154210.91;;;15.31;100.00
51287;BME280;37364;46.974;18.916;2023-04-02T13:40:13;154264.13;;;15.52;100.00
51287;BME280;37364;46.974;18.916;2023-04-02T13:42:44;154200.53;;;15.27;100.00